sensor_id;sensor_type;location;lat;lon;timestamp;temperature;humidity
6556;DHT22;3311;48.32423000;14.29074500;2023-08-06T00:01:06;20.60;91.30
6556;DHT22;3311;48.32423000;14.29074500;2023-08-06T00:03:33;20.60;91.20
6556;DHT22;3311;48.32423000;14.29074500;2023-08-06T00:06:00;20.60;91.20
6556;DHT22;3311;48.32423000;14.29074500;2023-08-06T00:08:29;20.60;91.10
6556;DHT22;3311;48.32423000;14.29074500;2023-08-06T00:10:56;20.60;91.20
6556;DHT22;3311;48.32423000;14.29074500;2023-08-06T00:13:24;20.60;91.20
6556;DHT22;3311;48.32423000;14.29074500;2023-08-06T00:15:51;20.50;91.10
6556;DHT22;3311;48.32423000;14.29074500;2023-08-06T00:18:18;20.50;91.10
6556;DHT22;3311;48.32423000;14.29074500;2023-08-06T00:20:46;20.50;91.10
6556;DHT22;3311;48.32423000;14.29074500;2023-08-06T00:23:13;20.60;91.10
6556;DHT22;3311;48.32423000;14.29074500;2023-08-06T00:25:42;20.60;91.10
6556;DHT22;3311;48.32423000;14.29074500;2023-08-06T00:28:09;20.60;91.10
6556;DHT22;3311;48.32423000;14.29074500;2023-08-06T00:30:36;20.50;91.00
6556;DHT22;3311;48.32423000;14.29074500;2023-08-06T00:33:03;20.50;91.00
6556;DHT22;3311;48.32423000;14.29074500;2023-08-06T00:35:31;20.50;91.00
6556;DHT22;3311;48.32423000;14.29074500;2023-08-06T00:37:58;20.50;91.10
6556;DHT22;3311;48.32423000;14.29074500;2023-08-06T00:40:25;20.50;91.20
6556;DHT22;3311;48.32423000;14.29074500;2023-08-06T00:42:55;20.50;91.30
6556;DHT22;3311;48.32423000;14.29074500;2023-08-06T00:45:23;20.40;91.30
6556;DHT22;3311;48.32423000;14.29074500;2023-08-06T00:47:50;20.40;91.30
6556;DHT22;3311;48.32423000;14.29074500;2023-08-06T00:50:17;20.40;91.40
6556;DHT22;3311;48.32423000;14.29074500;2023-08-06T00:52:47;20.40;91.50
6556;DHT22;3311;48.32423000;14.29074500;2023-08-06T00:55:14;20.40;91.40
6556;DHT22;3311;48.32423000;14.29074500;2023-08-06T00:57:42;20.40;91.40
6556;DHT22;3311;48.32423000;14.29074500;2023-08-06T01:00:12;20.40;91.30
6556;DHT22;3311;48.32423000;14.29074500;2023-08-06T01:02:39;20.40;91.50
6556;DHT22;3311;48.32423000;14.29074500;2023-08-06T01:05:07;20.30;91.40
6556;DHT22;3311;48.32423000;14.29074500;2023-08-06T01:07:43;20.30;91.40
6556;DHT22;3311;48.32423000;14.29074500;2023-08-06T01:10:23;20.20;91.60
6556;DHT22;3311;48.32423000;14.29074500;2023-08-06T01:13:01;20.30;91.50
6556;DHT22;3311;48.32423000;14.29074500;2023-08-06T01:15:32;20.30;91.40
6556;DHT22;3311;48.32423000;14.29074500;2023-08-06T01:18:02;20.30;91.30
6556;DHT22;3311;48.32423000;14.29074500;2023-08-06T01:20:32;20.40;91.30
6556;DHT22;3311;48.32423000;14.29074500;2023-08-06T01:22:59;20.40;91.20
6556;DHT22;3311;48.32423000;14.29074500;2023-08-06T01:25:32;20.40;91.10
6556;DHT22;3311;48.32423000;14.29074500;2023-08-06T01:28:05;20.30;91.30
6556;DHT22;3311;48.32423000;14.29074500;2023-08-06T01:30:38;20.30;91.10
6556;DHT22;3311;48.32423000;14.29074500;2023-08-06T01:33:12;20.40;91.30
6556;DHT22;3311;48.32423000;14.29074500;2023-08-06T01:35:43;20.40;91.10
6556;DHT22;3311;48.32423000;14.29074500;2023-08-06T01:38:11;20.30;91.10
6556;DHT22;3311;48.32423000;14.29074500;2023-08-06T01:40:39;20.30;91.30
6556;DHT22;3311;48.32423000;14.29074500;2023-08-06T01:43:06;20.20;91.30
6556;DHT22;3311;48.32423000;14.29074500;2023-08-06T01:45:33;20.20;91.40
6556;DHT22;3311;48.32423000;14.29074500;2023-08-06T01:48:01;20.20;91.30
6556;DHT22;3311;48.32423000;14.29074500;2023-08-06T01:50:28;20.20;91.20
6556;DHT22;3311;48.32423000;14.29074500;2023-08-06T01:52:57;20.20;91.20
6556;DHT22;3311;48.32423000;14.29074500;2023-08-06T01:55:24;20.10;91.40
6556;DHT22;3311;48.32423000;14.29074500;2023-08-06T01:57:51;20.10;91.30
6556;DHT22;3311;48.32423000;14.29074500;2023-08-06T02:00:18;20.10;91.30
6556;DHT22;3311;48.32423000;14.29074500;2023-08-06T02:02:46;20.10;91.40
6556;DHT22;3311;48.32423000;14.29074500;2023-08-06T02:05:13;20.00;91.50
6556;DHT22;3311;48.32423000;14.29074500;2023-08-06T02:07:40;20.10;91.50
6556;DHT22;3311;48.32423000;14.29074500;2023-08-06T02:10:09;20.10;91.40
6556;DHT22;3311;48.32423000;14.29074500;2023-08-06T02:12:37;20.00;91.50
6556;DHT22;3311;48.32423000;14.29074500;2023-08-06T02:15:05;20.10;91.50
6556;DHT22;3311;48.32423000;14.29074500;2023-08-06T02:17:33;20.10;91.30
6556;DHT22;3311;48.32423000;14.29074500;2023-08-06T02:20:00;20.10;91.40
6556;DHT22;3311;48.32423000;14.29074500;2023-08-06T02:22:28;20.10;91.30
6556;DHT22;3311;48.32423000;14.29074500;2023-08-06T02:24:55;20.10;91.40
6556;DHT22;3311;48.32423000;14.29074500;2023-08-06T02:27:24;20.00;91.30
6556;DHT22;3311;48.32423000;14.29074500;2023-08-06T02:29:51;20.10;91.30
6556;DHT22;3311;48.32423000;14.29074500;2023-08-06T02:32:19;20.10;91.30
6556;DHT22;3311;48.32423000;14.29074500;2023-08-06T02:34:46;20.10;91.10
6556;DHT22;3311;48.32423000;14.29074500;2023-08-06T02:37:13;20.10;91.10
6556;DHT22;3311;48.32423000;14.29074500;2023-08-06T02:39:41;20.10;91.20
6556;DHT22;3311;48.32423000;14.29074500;2023-08-06T02:42:09;20.10;91.10
6556;DHT22;3311;48.32423000;14.29074500;2023-08-06T02:44:38;20.20;91.10
6556;DHT22;3311;48.32423000;14.29074500;2023-08-06T02:47:05;20.10;91.10
6556;DHT22;3311;48.32423000;14.29074500;2023-08-06T02:49:33;20.20;91.10
6556;DHT22;3311;48.32423000;14.29074500;2023-08-06T02:52:00;20.20;91.00
6556;DHT22;3311;48.32423000;14.29074500;2023-08-06T02:54:27;20.20;91.00
6556;DHT22;3311;48.32423000;14.29074500;2023-08-06T02:56:54;20.10;91.20
6556;DHT22;3311;48.32423000;14.29074500;2023-08-06T02:59:22;20.10;91.10
6556;DHT22;3311;48.32423000;14.29074500;2023-08-06T03:01:50;20.10;91.20
6556;DHT22;3311;48.32423000;14.29074500;2023-08-06T03:04:18;20.00;91.50
6556;DHT22;3311;48.32423000;14.29074500;2023-08-06T03:06:45;20.00;91.30
6556;DHT22;3311;48.32423000;14.29074500;2023-08-06T03:09:12;20.00;91.20
6556;DHT22;3311;48.32423000;14.29074500;2023-08-06T03:11:39;20.00;91.20
6556;DHT22;3311;48.32423000;14.29074500;2023-08-06T03:14:07;20.00;91.30
6556;DHT22;3311;48.32423000;14.29074500;2023-08-06T03:16:34;20.00;91.20
6556;DHT22;3311;48.32423000;14.29074500;2023-08-06T03:19:03;20.00;91.20
6556;DHT22;3311;48.32423000;14.29074500;2023-08-06T03:21:30;20.10;91.20
6556;DHT22;3311;48.32423000;14.29074500;2023-08-06T03:23:57;20.10;91.20
6556;DHT22;3311;48.32423000;14.29074500;2023-08-06T03:26:24;20.20;91.00
6556;DHT22;3311;48.32423000;14.29074500;2023-08-06T03:28:52;20.20;91.00
6556;DHT22;3311;48.32423000;14.29074500;2023-08-06T03:31:19;20.20;91.00
6556;DHT22;3311;48.32423000;14.29074500;2023-08-06T03:33:46;20.10;91.00
6556;DHT22;3311;48.32423000;14.29074500;2023-08-06T03:36:15;20.20;91.10
6556;DHT22;3311;48.32423000;14.29074500;2023-08-06T03:38:42;20.20;91.00
6556;DHT22;3311;48.32423000;14.29074500;2023-08-06T03:41:10;20.20;90.80
6556;DHT22;3311;48.32423000;14.29074500;2023-08-06T03:43:37;20.20;90.80
6556;DHT22;3311;48.32423000;14.29074500;2023-08-06T03:46:04;20.20;90.80
6556;DHT22;3311;48.32423000;14.29074500;2023-08-06T03:48:31;20.10;90.90
6556;DHT22;3311;48.32423000;14.29074500;2023-08-06T03:50:59;20.10;90.90
6556;DHT22;3311;48.32423000;14.29074500;2023-08-06T03:53:29;20.10;91.00
6556;DHT22;3311;48.32423000;14.29074500;2023-08-06T03:55:56;20.20;90.90
6556;DHT22;3311;48.32423000;14.29074500;2023-08-06T03:58:26;20.20;90.90
6556;DHT22;3311;48.32423000;14.29074500;2023-08-06T04:00:58;20.20;90.90
6556;DHT22;3311;48.32423000;14.29074500;2023-08-06T04:03:26;20.20;90.90
6556;DHT22;3311;48.32423000;14.29074500;2023-08-06T04:05:54;20.30;90.90
6556;DHT22;3311;48.32423000;14.29074500;2023-08-06T04:08:21;20.30;90.70
6556;DHT22;3311;48.32423000;14.29074500;2023-08-06T04:10:51;20.40;90.40
6556;DHT22;3311;48.32423000;14.29074500;2023-08-06T04:13:19;20.30;90.60
6556;DHT22;3311;48.32423000;14.29074500;2023-08-06T04:15:47;20.20;90.60
6556;DHT22;3311;48.32423000;14.29074500;2023-08-06T04:18:14;20.20;90.80
6556;DHT22;3311;48.32423000;14.29074500;2023-08-06T04:20:44;20.30;90.80
6556;DHT22;3311;48.32423000;14.29074500;2023-08-06T04:23:12;20.40;90.70
6556;DHT22;3311;48.32423000;14.29074500;2023-08-06T04:25:39;20.40;90.30
6556;DHT22;3311;48.32423000;14.29074500;2023-08-06T04:28:08;20.40;90.40
6556;DHT22;3311;48.32423000;14.29074500;2023-08-06T04:30:37;20.50;90.30
6556;DHT22;3311;48.32423000;14.29074500;2023-08-06T04:33:04;20.70;90.30
6556;DHT22;3311;48.32423000;14.29074500;2023-08-06T04:35:31;20.70;90.20
6556;DHT22;3311;48.32423000;14.29074500;2023-08-06T04:37:58;20.80;89.60
6556;DHT22;3311;48.32423000;14.29074500;2023-08-06T04:40:26;20.80;90.00
6556;DHT22;3311;48.32423000;14.29074500;2023-08-06T04:42:53;20.70;89.50
6556;DHT22;3311;48.32423000;14.29074500;2023-08-06T04:45:22;20.80;89.90
6556;DHT22;3311;48.32423000;14.29074500;2023-08-06T04:47:50;20.80;89.50
6556;DHT22;3311;48.32423000;14.29074500;2023-08-06T04:50:17;20.70;89.10
6556;DHT22;3311;48.32423000;14.29074500;2023-08-06T04:52:45;20.70;89.70
6556;DHT22;3311;48.32423000;14.29074500;2023-08-06T04:55:12;20.70;89.20
6556;DHT22;3311;48.32423000;14.29074500;2023-08-06T04:57:39;20.70;89.70
6556;DHT22;3311;48.32423000;14.29074500;2023-08-06T05:00:08;20.80;89.30
6556;DHT22;3311;48.32423000;14.29074500;2023-08-06T05:02:36;20.70;89.30
6556;DHT22;3311;48.32423000;14.29074500;2023-08-06T05:05:05;20.70;89.30
6556;DHT22;3311;48.32423000;14.29074500;2023-08-06T05:07:32;20.70;89.30
6556;DHT22;3311;48.32423000;14.29074500;2023-08-06T05:09:59;20.70;88.60
6556;DHT22;3311;48.32423000;14.29074500;2023-08-06T05:12:26;20.70;88.80
6556;DHT22;3311;48.32423000;14.29074500;2023-08-06T05:14:54;20.70;88.50
6556;DHT22;3311;48.32423000;14.29074500;2023-08-06T05:17:21;20.60;88.50
6556;DHT22;3311;48.32423000;14.29074500;2023-08-06T05:19:51;20.60;88.50
6556;DHT22;3311;48.32423000;14.29074500;2023-08-06T05:22:18;20.60;88.50
6556;DHT22;3311;48.32423000;14.29074500;2023-08-06T05:24:45;20.50;88.50
6556;DHT22;3311;48.32423000;14.29074500;2023-08-06T05:27:13;20.50;88.90
6556;DHT22;3311;48.32423000;14.29074500;2023-08-06T05:29:40;20.50;88.80
6556;DHT22;3311;48.32423000;14.29074500;2023-08-06T05:32:07;20.50;88.60
6556;DHT22;3311;48.32423000;14.29074500;2023-08-06T05:34:35;20.50;88.80
6556;DHT22;3311;48.32423000;14.29074500;2023-08-06T05:37:04;20.50;88.90
6556;DHT22;3311;48.32423000;14.29074500;2023-08-06T05:39:32;20.40;89.00
6556;DHT22;3311;48.32423000;14.29074500;2023-08-06T05:41:59;20.40;89.20
6556;DHT22;3311;48.32423000;14.29074500;2023-08-06T05:44:26;20.40;88.80
6556;DHT22;3311;48.32423000;14.29074500;2023-08-06T05:46:54;20.40;89.40
6556;DHT22;3311;48.32423000;14.29074500;2023-08-06T05:49:21;20.40;88.90
6556;DHT22;3311;48.32423000;14.29074500;2023-08-06T05:51:48;20.30;88.90
6556;DHT22;3311;48.32423000;14.29074500;2023-08-06T05:54:17;20.30;88.90
6556;DHT22;3311;48.32423000;14.29074500;2023-08-06T05:56:44;20.40;89.20
6556;DHT22;3311;48.32423000;14.29074500;2023-08-06T05:59:12;20.40;88.50
6556;DHT22;3311;48.32423000;14.29074500;2023-08-06T06:01:39;20.40;88.70
6556;DHT22;3311;48.32423000;14.29074500;2023-08-06T06:04:06;20.40;88.80
6556;DHT22;3311;48.32423000;14.29074500;2023-08-06T06:06:33;20.40;88.60
6556;DHT22;3311;48.32423000;14.29074500;2023-08-06T06:09:01;20.40;88.90
6556;DHT22;3311;48.32423000;14.29074500;2023-08-06T06:11:29;20.40;89.10
6556;DHT22;3311;48.32423000;14.29074500;2023-08-06T06:13:58;20.50;88.50
6556;DHT22;3311;48.32423000;14.29074500;2023-08-06T06:16:25;20.50;88.10
6556;DHT22;3311;48.32423000;14.29074500;2023-08-06T06:18:52;20.50;88.50
6556;DHT22;3311;48.32423000;14.29074500;2023-08-06T06:21:20;20.60;88.20
6556;DHT22;3311;48.32423000;14.29074500;2023-08-06T06:23:47;20.60;88.10
6556;DHT22;3311;48.32423000;14.29074500;2023-08-06T06:26:15;20.50;88.00
6556;DHT22;3311;48.32423000;14.29074500;2023-08-06T06:28:43;20.60;87.70
6556;DHT22;3311;48.32423000;14.29074500;2023-08-06T06:31:11;20.60;87.90
6556;DHT22;3311;48.32423000;14.29074500;2023-08-06T06:33:38;20.60;87.70
6556;DHT22;3311;48.32423000;14.29074500;2023-08-06T06:36:05;20.70;87.60
6556;DHT22;3311;48.32423000;14.29074500;2023-08-06T06:38:33;20.80;87.70
6556;DHT22;3311;48.32423000;14.29074500;2023-08-06T06:41:00;20.80;87.40
6556;DHT22;3311;48.32423000;14.29074500;2023-08-06T06:43:28;20.80;87.20
6556;DHT22;3311;48.32423000;14.29074500;2023-08-06T06:45:57;20.90;87.10
6556;DHT22;3311;48.32423000;14.29074500;2023-08-06T06:48:25;20.90;86.90
6556;DHT22;3311;48.32423000;14.29074500;2023-08-06T06:50:53;20.90;87.10
6556;DHT22;3311;48.32423000;14.29074500;2023-08-06T06:53:20;20.90;86.60
6556;DHT22;3311;48.32423000;14.29074500;2023-08-06T06:55:49;20.90;86.80
6556;DHT22;3311;48.32423000;14.29074500;2023-08-06T06:58:16;21.00;87.00
6556;DHT22;3311;48.32423000;14.29074500;2023-08-06T07:00:43;21.00;86.60
6556;DHT22;3311;48.32423000;14.29074500;2023-08-06T07:03:12;21.00;86.60
6556;DHT22;3311;48.32423000;14.29074500;2023-08-06T07:05:39;21.00;86.40
6556;DHT22;3311;48.32423000;14.29074500;2023-08-06T07:08:06;21.10;86.70
6556;DHT22;3311;48.32423000;14.29074500;2023-08-06T07:10:33;21.10;86.70
6556;DHT22;3311;48.32423000;14.29074500;2023-08-06T07:13:01;21.20;86.40
6556;DHT22;3311;48.32423000;14.29074500;2023-08-06T07:15:28;21.20;86.10
6556;DHT22;3311;48.32423000;14.29074500;2023-08-06T07:17:55;21.30;85.80
6556;DHT22;3311;48.32423000;14.29074500;2023-08-06T07:20:29;21.30;85.80
6556;DHT22;3311;48.32423000;14.29074500;2023-08-06T07:22:58;21.30;85.70
6556;DHT22;3311;48.32423000;14.29074500;2023-08-06T07:25:26;21.40;85.10
6556;DHT22;3311;48.32423000;14.29074500;2023-08-06T07:27:53;21.40;85.10
6556;DHT22;3311;48.32423000;14.29074500;2023-08-06T07:30:20;21.30;85.60
6556;DHT22;3311;48.32423000;14.29074500;2023-08-06T07:32:47;21.30;85.20
6556;DHT22;3311;48.32423000;14.29074500;2023-08-06T07:35:14;21.20;85.10
6556;DHT22;3311;48.32423000;14.29074500;2023-08-06T07:37:43;21.20;85.00
6556;DHT22;3311;48.32423000;14.29074500;2023-08-06T07:40:11;21.10;85.20
6556;DHT22;3311;48.32423000;14.29074500;2023-08-06T07:42:38;21.10;85.10
6556;DHT22;3311;48.32423000;14.29074500;2023-08-06T07:45:08;21.10;85.00
6556;DHT22;3311;48.32423000;14.29074500;2023-08-06T07:47:35;21.00;85.10
6556;DHT22;3311;48.32423000;14.29074500;2023-08-06T07:50:02;21.00;85.10
6556;DHT22;3311;48.32423000;14.29074500;2023-08-06T07:52:30;21.00;85.60
6556;DHT22;3311;48.32423000;14.29074500;2023-08-06T07:54:59;21.00;85.10
6556;DHT22;3311;48.32423000;14.29074500;2023-08-06T07:57:27;21.00;85.20
6556;DHT22;3311;48.32423000;14.29074500;2023-08-06T07:59:55;21.00;85.10
6556;DHT22;3311;48.32423000;14.29074500;2023-08-06T08:02:22;21.00;85.30
6556;DHT22;3311;48.32423000;14.29074500;2023-08-06T08:04:49;21.00;85.20
6556;DHT22;3311;48.32423000;14.29074500;2023-08-06T08:07:17;21.00;85.20
6556;DHT22;3311;48.32423000;14.29074500;2023-08-06T08:09:45;21.00;85.20
6556;DHT22;3311;48.32423000;14.29074500;2023-08-06T08:12:15;21.00;84.60
6556;DHT22;3311;48.32423000;14.29074500;2023-08-06T08:14:42;20.90;85.10
6556;DHT22;3311;48.32423000;14.29074500;2023-08-06T08:17:11;20.90;85.40
6556;DHT22;3311;48.32423000;14.29074500;2023-08-06T08:19:39;21.00;85.50
6556;DHT22;3311;48.32423000;14.29074500;2023-08-06T08:22:06;21.00;85.00
6556;DHT22;3311;48.32423000;14.29074500;2023-08-06T08:24:34;21.10;85.00
6556;DHT22;3311;48.32423000;14.29074500;2023-08-06T08:27:01;21.10;85.00
6556;DHT22;3311;48.32423000;14.29074500;2023-08-06T08:29:29;21.10;84.60
6556;DHT22;3311;48.32423000;14.29074500;2023-08-06T08:31:57;21.10;84.70
6556;DHT22;3311;48.32423000;14.29074500;2023-08-06T08:34:24;21.10;85.20
6556;DHT22;3311;48.32423000;14.29074500;2023-08-06T08:36:51;21.20;84.80
6556;DHT22;3311;48.32423000;14.29074500;2023-08-06T08:39:18;21.30;84.70
6556;DHT22;3311;48.32423000;14.29074500;2023-08-06T08:41:45;21.30;84.90
6556;DHT22;3311;48.32423000;14.29074500;2023-08-06T08:44:14;21.30;84.70
6556;DHT22;3311;48.32423000;14.29074500;2023-08-06T08:46:45;21.30;84.70
6556;DHT22;3311;48.32423000;14.29074500;2023-08-06T08:49:14;21.40;84.40
6556;DHT22;3311;48.32423000;14.29074500;2023-08-06T08:51:41;21.40;84.00
6556;DHT22;3311;48.32423000;14.29074500;2023-08-06T08:54:11;21.40;83.90
6556;DHT22;3311;48.32423000;14.29074500;2023-08-06T08:56:41;21.40;83.80
6556;DHT22;3311;48.32423000;14.29074500;2023-08-06T08:59:09;21.30;84.00
6556;DHT22;3311;48.32423000;14.29074500;2023-08-06T09:01:37;21.20;83.90
6556;DHT22;3311;48.32423000;14.29074500;2023-08-06T09:04:09;21.30;83.80
6556;DHT22;3311;48.32423000;14.29074500;2023-08-06T09:06:38;21.30;83.50
6556;DHT22;3311;48.32423000;14.29074500;2023-08-06T09:09:08;21.20;83.80
6556;DHT22;3311;48.32423000;14.29074500;2023-08-06T09:11:39;21.20;83.20
6556;DHT22;3311;48.32423000;14.29074500;2023-08-06T09:14:07;21.10;83.40
6556;DHT22;3311;48.32423000;14.29074500;2023-08-06T09:16:34;21.10;83.70
6556;DHT22;3311;48.32423000;14.29074500;2023-08-06T09:19:09;21.00;83.70
6556;DHT22;3311;48.32423000;14.29074500;2023-08-06T09:21:39;21.10;83.80
6556;DHT22;3311;48.32423000;14.29074500;2023-08-06T09:24:08;21.10;84.00
6556;DHT22;3311;48.32423000;14.29074500;2023-08-06T09:26:36;21.10;83.80
6556;DHT22;3311;48.32423000;14.29074500;2023-08-06T09:29:09;21.30;83.60
6556;DHT22;3311;48.32423000;14.29074500;2023-08-06T09:31:41;21.40;83.30
6556;DHT22;3311;48.32423000;14.29074500;2023-08-06T09:34:15;21.40;83.30
6556;DHT22;3311;48.32423000;14.29074500;2023-08-06T09:36:43;21.40;83.10
6556;DHT22;3311;48.32423000;14.29074500;2023-08-06T09:39:13;21.50;83.00
6556;DHT22;3311;48.32423000;14.29074500;2023-08-06T09:41:41;21.60;83.00
6556;DHT22;3311;48.32423000;14.29074500;2023-08-06T09:44:16;21.60;82.70
6556;DHT22;3311;48.32423000;14.29074500;2023-08-06T09:46:47;21.60;83.30
6556;DHT22;3311;48.32423000;14.29074500;2023-08-06T09:49:19;21.70;82.50
6556;DHT22;3311;48.32423000;14.29074500;2023-08-06T09:51:47;21.70;82.60
6556;DHT22;3311;48.32423000;14.29074500;2023-08-06T09:54:17;21.70;82.60
6556;DHT22;3311;48.32423000;14.29074500;2023-08-06T09:56:44;21.70;82.60
6556;DHT22;3311;48.32423000;14.29074500;2023-08-06T09:59:12;21.70;82.50
6556;DHT22;3311;48.32423000;14.29074500;2023-08-06T10:01:42;21.70;82.70
6556;DHT22;3311;48.32423000;14.29074500;2023-08-06T10:04:09;21.60;82.70
6556;DHT22;3311;48.32423000;14.29074500;2023-08-06T10:06:39;21.60;82.70
6556;DHT22;3311;48.32423000;14.29074500;2023-08-06T10:09:07;21.60;82.70
6556;DHT22;3311;48.32423000;14.29074500;2023-08-06T10:11:36;21.60;82.80
6556;DHT22;3311;48.32423000;14.29074500;2023-08-06T10:14:08;21.60;82.80
6556;DHT22;3311;48.32423000;14.29074500;2023-08-06T10:16:37;21.60;83.00
6556;DHT22;3311;48.32423000;14.29074500;2023-08-06T10:19:09;21.60;83.50
6556;DHT22;3311;48.32423000;14.29074500;2023-08-06T10:21:39;21.50;83.00
6556;DHT22;3311;48.32423000;14.29074500;2023-08-06T10:24:07;21.50;84.00
6556;DHT22;3311;48.32423000;14.29074500;2023-08-06T10:26:36;21.50;83.50
6556;DHT22;3311;48.32423000;14.29074500;2023-08-06T10:29:37;21.60;83.20
6556;DHT22;3311;48.32423000;14.29074500;2023-08-06T10:32:04;21.70;82.90
6556;DHT22;3311;48.32423000;14.29074500;2023-08-06T10:34:56;21.70;82.70
6556;DHT22;3311;48.32423000;14.29074500;2023-08-06T10:37:35;21.80;82.90
6556;DHT22;3311;48.32423000;14.29074500;2023-08-06T10:40:03;21.80;82.40
6556;DHT22;3311;48.32423000;14.29074500;2023-08-06T10:42:30;21.70;82.20
6556;DHT22;3311;48.32423000;14.29074500;2023-08-06T10:45:15;21.70;82.40
6556;DHT22;3311;48.32423000;14.29074500;2023-08-06T10:47:43;21.80;82.40
6556;DHT22;3311;48.32423000;14.29074500;2023-08-06T10:50:12;21.80;82.50
6556;DHT22;3311;48.32423000;14.29074500;2023-08-06T10:52:44;21.80;82.20
6556;DHT22;3311;48.32423000;14.29074500;2023-08-06T10:55:12;21.90;82.20
6556;DHT22;3311;48.32423000;14.29074500;2023-08-06T10:57:40;22.00;81.80
6556;DHT22;3311;48.32423000;14.29074500;2023-08-06T11:00:09;22.00;81.60
6556;DHT22;3311;48.32423000;14.29074500;2023-08-06T11:02:39;22.00;81.10
6556;DHT22;3311;48.32423000;14.29074500;2023-08-06T11:05:07;22.00;81.40
6556;DHT22;3311;48.32423000;14.29074500;2023-08-06T11:07:35;22.00;81.40
6556;DHT22;3311;48.32423000;14.29074500;2023-08-06T11:10:06;22.00;81.60
6556;DHT22;3311;48.32423000;14.29074500;2023-08-06T11:12:34;22.00;81.10
6556;DHT22;3311;48.32423000;14.29074500;2023-08-06T11:15:02;22.10;81.00
6556;DHT22;3311;48.32423000;14.29074500;2023-08-06T11:17:31;22.10;80.60
6556;DHT22;3311;48.32423000;14.29074500;2023-08-06T11:19:59;22.10;80.50
6556;DHT22;3311;48.32423000;14.29074500;2023-08-06T11:22:27;22.10;79.80
6556;DHT22;3311;48.32423000;14.29074500;2023-08-06T11:24:55;22.10;79.70
6556;DHT22;3311;48.32423000;14.29074500;2023-08-06T11:27:26;22.10;79.90
6556;DHT22;3311;48.32423000;14.29074500;2023-08-06T11:29:54;22.10;79.70
6556;DHT22;3311;48.32423000;14.29074500;2023-08-06T11:32:21;22.10;79.60
6556;DHT22;3311;48.32423000;14.29074500;2023-08-06T11:34:48;22.00;79.60
6556;DHT22;3311;48.32423000;14.29074500;2023-08-06T11:37:15;21.90;80.00
6556;DHT22;3311;48.32423000;14.29074500;2023-08-06T11:39:47;21.80;80.30
6556;DHT22;3311;48.32423000;14.29074500;2023-08-06T11:42:15;21.70;80.60
6556;DHT22;3311;48.32423000;14.29074500;2023-08-06T11:44:43;21.70;80.90
6556;DHT22;3311;48.32423000;14.29074500;2023-08-06T11:47:16;21.70;81.30
6556;DHT22;3311;48.32423000;14.29074500;2023-08-06T11:49:45;21.70;82.20
6556;DHT22;3311;48.32423000;14.29074500;2023-08-06T11:52:17;21.60;82.60
6556;DHT22;3311;48.32423000;14.29074500;2023-08-06T11:54:47;21.60;83.00
6556;DHT22;3311;48.32423000;14.29074500;2023-08-06T11:57:15;21.70;83.20
6556;DHT22;3311;48.32423000;14.29074500;2023-08-06T11:59:45;21.80;82.10
6556;DHT22;3311;48.32423000;14.29074500;2023-08-06T12:02:12;21.80;82.20
6556;DHT22;3311;48.32423000;14.29074500;2023-08-06T12:04:59;21.80;81.90
6556;DHT22;3311;48.32423000;14.29074500;2023-08-06T12:07:29;21.80;82.20
6556;DHT22;3311;48.32423000;14.29074500;2023-08-06T12:09:56;21.70;80.30
6556;DHT22;3311;48.32423000;14.29074500;2023-08-06T12:12:24;21.60;79.10
6556;DHT22;3311;48.32423000;14.29074500;2023-08-06T12:14:54;21.50;77.50
6556;DHT22;3311;48.32423000;14.29074500;2023-08-06T12:17:22;21.50;77.20
6556;DHT22;3311;48.32423000;14.29074500;2023-08-06T12:19:50;21.60;77.40
6556;DHT22;3311;48.32423000;14.29074500;2023-08-06T12:22:18;21.60;77.70
6556;DHT22;3311;48.32423000;14.29074500;2023-08-06T12:24:46;21.60;78.10
6556;DHT22;3311;48.32423000;14.29074500;2023-08-06T12:27:14;21.60;78.30
6556;DHT22;3311;48.32423000;14.29074500;2023-08-06T12:29:43;21.60;78.50
6556;DHT22;3311;48.32423000;14.29074500;2023-08-06T12:32:12;21.60;78.70
6556;DHT22;3311;48.32423000;14.29074500;2023-08-06T12:34:40;21.60;78.70
6556;DHT22;3311;48.32423000;14.29074500;2023-08-06T12:37:08;21.60;78.90
6556;DHT22;3311;48.32423000;14.29074500;2023-08-06T12:39:37;21.50;79.00
6556;DHT22;3311;48.32423000;14.29074500;2023-08-06T12:42:05;21.50;79.30
6556;DHT22;3311;48.32423000;14.29074500;2023-08-06T12:44:33;21.40;79.40
6556;DHT22;3311;48.32423000;14.29074500;2023-08-06T12:47:00;21.40;79.30
6556;DHT22;3311;48.32423000;14.29074500;2023-08-06T12:49:30;21.30;78.90
6556;DHT22;3311;48.32423000;14.29074500;2023-08-06T12:51:59;21.30;78.80
6556;DHT22;3311;48.32423000;14.29074500;2023-08-06T12:54:27;21.30;78.70
6556;DHT22;3311;48.32423000;14.29074500;2023-08-06T12:56:54;21.30;78.70
6556;DHT22;3311;48.32423000;14.29074500;2023-08-06T12:59:22;21.20;78.80
6556;DHT22;3311;48.32423000;14.29074500;2023-08-06T13:01:49;21.10;79.40
6556;DHT22;3311;48.32423000;14.29074500;2023-08-06T13:04:17;21.00;79.90
6556;DHT22;3311;48.32423000;14.29074500;2023-08-06T13:06:45;21.00;80.40
6556;DHT22;3311;48.32423000;14.29074500;2023-08-06T13:09:13;21.00;80.50
6556;DHT22;3311;48.32423000;14.29074500;2023-08-06T13:11:42;20.90;80.70
6556;DHT22;3311;48.32423000;14.29074500;2023-08-06T13:14:13;20.90;81.40
6556;DHT22;3311;48.32423000;14.29074500;2023-08-06T13:16:41;20.80;81.50
6556;DHT22;3311;48.32423000;14.29074500;2023-08-06T13:19:09;20.80;81.60
6556;DHT22;3311;48.32423000;14.29074500;2023-08-06T13:22:00;20.90;81.90
6556;DHT22;3311;48.32423000;14.29074500;2023-08-06T13:24:29;21.00;82.20
6556;DHT22;3311;48.32423000;14.29074500;2023-08-06T13:26:59;21.10;81.90
6556;DHT22;3311;48.32423000;14.29074500;2023-08-06T13:29:26;21.00;82.10
6556;DHT22;3311;48.32423000;14.29074500;2023-08-06T13:31:54;21.10;82.10
6556;DHT22;3311;48.32423000;14.29074500;2023-08-06T13:34:21;21.20;81.30
6556;DHT22;3311;48.32423000;14.29074500;2023-08-06T13:36:48;21.10;81.60
6556;DHT22;3311;48.32423000;14.29074500;2023-08-06T13:39:18;21.10;82.00
6556;DHT22;3311;48.32423000;14.29074500;2023-08-06T13:41:45;21.20;82.40